createdAt,value
2023-08-03T00:01:01.525Z,98770.53
2023-08-03T00:03:29.529Z,98758.22
2023-08-03T00:05:57.393Z,98766.31
2023-08-03T00:08:25.158Z,98773.47
2023-08-03T00:10:52.910Z,98774.44
2023-08-03T00:13:20.668Z,98773.66
2023-08-03T00:15:48.510Z,98769.09
2023-08-03T00:18:17.622Z,98772.63
2023-08-03T00:20:47.849Z,98770.78
2023-08-03T00:23:15.631Z,98775.22
2023-08-03T00:25:43.393Z,98786.69
2023-08-03T00:28:11.280Z,98784.78
2023-08-03T00:30:39.048Z,98783.00
2023-08-03T00:33:06.836Z,98783.84
2023-08-03T00:35:36.024Z,98789.22
2023-08-03T00:38:03.791Z,98792.75
2023-08-03T00:40:31.715Z,98787.47
2023-08-03T00:42:59.945Z,98795.50
2023-08-03T00:45:27.798Z,98791.13
2023-08-03T00:47:55.616Z,98783.09
2023-08-03T00:50:23.927Z,98788.53
2023-08-03T00:52:53.028Z,98791.28
2023-08-03T00:55:20.811Z,98777.13
2023-08-03T00:57:48.639Z,98785.94
2023-08-03T01:00:16.756Z,98773.56
2023-08-03T01:03:12.890Z,98774.53
2023-08-03T01:05:41.575Z,98774.53
2023-08-03T01:09:01.902Z,98776.44
2023-08-03T01:11:55.346Z,98777.53
2023-08-03T01:14:28.991Z,98769.66
2023-08-03T01:16:57.011Z,98779.28
2023-08-03T01:19:25.569Z,98768.81
2023-08-03T01:21:53.954Z,98770.41
2023-08-03T01:27:52.546Z,98767.00
2023-08-03T01:30:38.005Z,98754.81
2023-08-03T01:33:09.370Z,98751.47
2023-08-03T01:35:40.430Z,98758.56
2023-08-03T01:38:11.421Z,98753.38
2023-08-03T01:40:40.706Z,98755.34
2023-08-03T01:43:34.238Z,98754.84
2023-08-03T01:46:06.346Z,98761.91
2023-08-03T01:48:34.196Z,98762.88
2023-08-03T01:51:02.163Z,98763.03
2023-08-03T01:53:30.375Z,98756.97
2023-08-03T01:55:59.485Z,98759.66
2023-08-03T01:58:27.168Z,98754.47
2023-08-03T02:00:54.795Z,98755.44
2023-08-03T02:03:22.468Z,98755.53
2023-08-03T02:05:50.220Z,98758.19
2023-08-03T02:08:17.997Z,98752.84
2023-08-03T02:10:45.822Z,98759.13
2023-08-03T02:13:14.855Z,98749.28
2023-08-03T02:15:42.621Z,98754.63
2023-08-03T02:18:10.326Z,98759.22
2023-08-03T02:20:38.036Z,98760.19
2023-08-03T02:23:05.997Z,98746.81
2023-08-03T02:25:33.660Z,98745.84
2023-08-03T02:28:01.694Z,98742.38
2023-08-03T02:30:32.043Z,98734.28
2023-08-03T02:33:00.017Z,98725.41
2023-08-03T02:35:28.205Z,98741.34
2023-08-03T02:37:56.584Z,98722.53
2023-08-03T02:40:24.867Z,98728.84
2023-08-03T02:42:52.678Z,98723.41
2023-08-03T02:45:21.055Z,98719.75
2023-08-03T02:47:51.123Z,98716.91
2023-08-03T02:50:22.015Z,98716.06
2023-08-03T02:52:52.998Z,98715.97
2023-08-03T02:55:20.908Z,98715.00
2023-08-03T02:57:49.588Z,98716.59
2023-08-03T03:00:17.920Z,98712.09
2023-08-03T03:02:45.904Z,98724.63
2023-08-03T03:05:16.798Z,98729.78
2023-08-03T03:07:47.776Z,98737.72
2023-08-03T03:10:16.382Z,98735.94
2023-08-03T03:12:45.054Z,98727.00
2023-08-03T03:15:13.152Z,98726.16
2023-08-03T03:17:43.750Z,98719.88
2023-08-03T03:20:13.035Z,98714.50
2023-08-03T03:22:43.605Z,98724.25
2023-08-03T03:25:11.619Z,98718.91
2023-08-03T03:27:39.323Z,98724.25
2023-08-03T03:30:09.670Z,98723.47
2023-08-03T03:32:37.457Z,98718.97
2023-08-03T03:35:06.604Z,98724.25
2023-08-03T03:37:34.970Z,98733.06
2023-08-03T03:40:04.985Z,98731.25
2023-08-03T03:42:39.046Z,98730.22
2023-08-03T03:45:07.990Z,98723.16
2023-08-03T03:47:36.259Z,98723.16
2023-08-03T03:50:04.545Z,98738.25
2023-08-03T03:52:34.076Z,98733.78
2023-08-03T03:55:01.801Z,98730.97
2023-08-03T03:57:30.834Z,98725.75
2023-08-03T03:59:58.557Z,98730.28
2023-08-03T04:02:26.917Z,98726.75
2023-08-03T04:04:57.130Z,98724.16
2023-08-03T04:07:25.038Z,98726.00
2023-08-03T04:09:52.675Z,98708.28
2023-08-03T04:12:20.308Z,98703.00
2023-08-03T04:14:49.281Z,98703.00
2023-08-03T04:17:16.960Z,98714.59
2023-08-03T04:19:44.619Z,98716.38
2023-08-03T04:22:15.322Z,98715.53
2023-08-03T04:24:43.003Z,98714.59
2023-08-03T04:27:10.863Z,98719.88
2023-08-03T04:29:40.532Z,98721.56
2023-08-03T04:32:10.139Z,98726.00
2023-08-03T04:34:38.499Z,98727.81
2023-08-03T04:37:09.490Z,98725.91
2023-08-03T04:39:38.708Z,98725.81
2023-08-03T04:42:07.019Z,98734.72
2023-08-03T04:44:36.826Z,98730.13
2023-08-03T04:47:05.334Z,98723.84
2023-08-03T04:49:34.340Z,98729.09
2023-08-03T04:52:06.304Z,98736.09
2023-08-03T04:54:34.559Z,98732.38
2023-08-03T04:57:02.221Z,98727.72
2023-08-03T04:59:34.930Z,98722.19
2023-08-03T05:02:02.664Z,98722.00
2023-08-03T05:04:30.760Z,98727.16
2023-08-03T05:07:00.551Z,98732.34
2023-08-03T05:09:28.529Z,98736.56
2023-08-03T05:11:56.257Z,98740.91
2023-08-03T05:14:24.540Z,98736.16
2023-08-03T05:16:52.201Z,98741.41
2023-08-03T05:19:19.870Z,98743.03
2023-08-03T05:21:47.682Z,98742.97
2023-08-03T05:24:16.784Z,98744.44
2023-08-03T05:26:44.620Z,98753.16
2023-08-03T05:29:12.229Z,98750.09
2023-08-03T05:31:39.865Z,98746.38
2023-08-03T05:34:07.576Z,98754.06
2023-08-03T05:36:35.234Z,98752.84
2023-08-03T05:39:02.963Z,98748.25
2023-08-03T05:41:32.021Z,98766.78
2023-08-03T05:43:59.926Z,98756.81
2023-08-03T05:46:33.365Z,98760.34
2023-08-03T05:49:01.160Z,98763.81
2023-08-03T05:51:30.238Z,98772.63
2023-08-03T05:53:58.547Z,98766.31
2023-08-03T05:56:26.419Z,98784.03
2023-08-03T05:58:55.938Z,98783.06
2023-08-03T06:01:25.458Z,98786.59
2023-08-03T06:03:54.901Z,98775.03
2023-08-03T06:06:24.184Z,98786.59
2023-08-03T06:08:54.065Z,98793.53
2023-08-03T06:13:54.008Z,98798.63
2023-08-03T06:16:24.891Z,98805.53
2023-08-03T06:18:54.647Z,98790.19
2023-08-03T06:21:24.444Z,98798.06
2023-08-03T06:23:54.122Z,98794.44
2023-08-03T06:26:26.117Z,98797.88
2023-08-03T06:28:55.885Z,98806.78
2023-08-03T06:31:32.508Z,98807.84
2023-08-03T06:34:00.534Z,98808.63
2023-08-03T06:36:29.469Z,98824.31
2023-08-03T06:38:58.223Z,98813.91
2023-08-03T06:41:27.370Z,98816.81
2023-08-03T06:43:55.638Z,98827.84
2023-08-03T06:46:23.578Z,98829.69
2023-08-03T06:48:53.624Z,98829.97
2023-08-03T06:51:22.087Z,98844.56
2023-08-03T06:53:50.627Z,98833.94
2023-08-03T06:56:18.953Z,98832.41
2023-08-03T06:58:46.913Z,98833.53
2023-08-03T07:01:14.827Z,98838.41
2023-08-03T07:03:42.798Z,98847.03
2023-08-03T07:06:11.882Z,98844.34
2023-08-03T07:08:39.873Z,98850.41
2023-08-03T07:11:07.564Z,98851.81
2023-08-03T07:13:35.273Z,98855.19
2023-08-03T07:16:08.221Z,98864.38
2023-08-03T07:18:36.011Z,98870.13
2023-08-03T07:21:07.410Z,98872.94
2023-08-03T07:23:36.453Z,98870.66
2023-08-03T07:26:04.184Z,98886.41
2023-08-03T07:28:31.878Z,98874.56
2023-08-03T07:30:59.563Z,98875.13
2023-08-03T07:33:27.800Z,98881.94
2023-08-03T07:35:55.574Z,98893.91
2023-08-03T07:38:23.393Z,98908.88
2023-08-03T07:40:52.477Z,98892.31
2023-08-03T07:43:20.164Z,98901.81
2023-08-03T07:48:18.384Z,98904.75
2023-08-03T07:50:46.058Z,98882.88
2023-08-03T07:53:14.050Z,98893.88
2023-08-03T07:55:41.718Z,98889.91
2023-08-03T07:58:10.698Z,98886.81
2023-08-03T08:00:38.480Z,98882.75
2023-08-03T08:03:06.421Z,98886.75
2023-08-03T08:05:34.107Z,98899.88
2023-08-03T08:08:01.837Z,98898.28
2023-08-03T08:10:29.553Z,98907.22
2023-08-03T08:12:57.564Z,98899.78
2023-08-03T08:15:26.719Z,98901.38
2023-08-03T08:17:55.836Z,98901.19
2023-08-03T08:20:23.530Z,98917.88
2023-08-03T08:22:51.254Z,98924.78
2023-08-03T08:25:19.047Z,98915.69
2023-08-03T08:27:47.009Z,98908.72
2023-08-03T08:30:14.730Z,98916.56
2023-08-03T08:32:43.804Z,98927.88
2023-08-03T08:35:11.444Z,98916.88
2023-08-03T08:37:39.095Z,98916.88
2023-08-03T08:40:11.494Z,98928.13
2023-08-03T08:42:40.155Z,98936.72
2023-08-03T08:45:10.474Z,98935.09
2023-08-03T08:47:39.913Z,98950.94
2023-08-03T08:55:18.223Z,98942.66
2023-08-03T09:00:43.161Z,98953.75
2023-08-03T09:03:10.992Z,98959.78
2023-08-03T09:08:15.140Z,98951.56
2023-08-03T09:10:53.050Z,98958.09
2023-08-03T09:13:28.581Z,98956.78
2023-08-03T09:15:56.738Z,98945.34
2023-08-03T09:18:26.576Z,98969.66
2023-08-03T09:26:13.576Z,98969.81
2023-08-03T09:28:43.127Z,98964.44
2023-08-03T09:31:28.805Z,98968.59
2023-08-03T09:33:58.734Z,98967.06
2023-08-03T09:39:31.153Z,98985.53
2023-08-03T09:41:59.832Z,98998.06
2023-08-03T09:44:29.135Z,98985.75
2023-08-03T09:46:57.145Z,98982.50
2023-08-03T09:49:26.117Z,98985.63
2023-08-03T09:54:32.226Z,98989.09
2023-08-03T09:59:38.718Z,98982.53
2023-08-03T10:02:10.461Z,98995.31
2023-08-03T10:04:43.333Z,99004.22
2023-08-03T10:07:16.704Z,98995.66
2023-08-03T10:09:48.926Z,99005.16
2023-08-03T10:12:20.557Z,99005.34
2023-08-03T10:14:52.089Z,98992.09
2023-08-03T10:17:21.157Z,99001.94
2023-08-03T10:19:50.085Z,99000.09
2023-08-03T10:22:19.212Z,98995.41
2023-08-03T10:25:19.342Z,98987.66
2023-08-03T10:28:12.533Z,98999.97
2023-08-03T10:31:12.339Z,99015.94
2023-08-03T10:34:15.877Z,99024.53
2023-08-03T10:36:50.701Z,99007.81
2023-08-03T10:40:01.416Z,99011.88
2023-08-03T10:42:33.659Z,99031.94
2023-08-03T10:45:28.200Z,99025.28
2023-08-03T10:48:23.533Z,99019.63
2023-08-03T10:51:03.478Z,99030.69
2023-08-03T10:53:31.595Z,99027.00
2023-08-03T10:56:07.449Z,99026.84
2023-08-03T10:58:44.875Z,99036.91
2023-08-03T11:01:15.865Z,99049.97
2023-08-03T11:03:43.784Z,99057.81
2023-08-03T11:06:13.052Z,99060.34
2023-08-03T11:08:51.052Z,99083.31
2023-08-03T11:11:23.442Z,99063.16
2023-08-03T11:13:52.146Z,99063.59
2023-08-03T11:16:20.548Z,99075.31
2023-08-03T11:18:48.761Z,99078.56
2023-08-03T11:21:36.278Z,99073.56
2023-08-03T11:24:54.683Z,99072.59
2023-08-03T11:27:23.519Z,99079.94
2023-08-03T11:29:53.038Z,99080.50
2023-08-03T11:32:23.414Z,99071.03
2023-08-03T11:34:51.224Z,99085.03
2023-08-03T11:37:21.451Z,99077.47
2023-08-03T11:39:50.375Z,99075.72
2023-08-03T11:42:18.181Z,99080.06
2023-08-03T11:44:55.790Z,99086.53
2023-08-03T11:47:24.821Z,99085.25
2023-08-03T11:53:32.901Z,99089.22
2023-08-03T11:56:00.734Z,99083.97
2023-08-03T11:58:28.090Z,99079.84
2023-08-03T12:01:00.242Z,99091.25
2023-08-03T12:03:33.018Z,99109.91
2023-08-03T12:06:09.101Z,99113.28
2023-08-03T12:08:46.583Z,99101.50
2023-08-03T12:11:18.322Z,99112.19
2023-08-03T12:13:46.908Z,99125.16
2023-08-03T12:16:16.505Z,99113.28
2023-08-03T12:18:44.203Z,99119.00
2023-08-03T12:21:11.863Z,99121.47
2023-08-03T12:23:39.746Z,99128.28
2023-08-03T12:26:09.051Z,99139.53
2023-08-03T12:28:36.843Z,99137.78
2023-08-03T12:31:04.665Z,99137.69
2023-08-03T12:33:32.507Z,99128.81
2023-08-03T12:36:00.372Z,99131.50
2023-08-03T12:38:28.495Z,99136.22
2023-08-03T12:40:56.199Z,99156.75
2023-08-03T12:43:25.308Z,99121.03
2023-08-03T12:45:53.406Z,99132.78
2023-08-03T12:48:21.236Z,99131.91
2023-08-03T12:50:49.175Z,99154.34
2023-08-03T12:53:19.578Z,99145.16
2023-08-03T12:55:47.590Z,99134.72
2023-08-03T12:58:15.312Z,99164.41
2023-08-03T13:00:45.954Z,99151.13
2023-08-03T13:03:14.148Z,99154.06
2023-08-03T13:05:44.967Z,99169.50
2023-08-03T13:08:13.962Z,99183.34
2023-08-03T13:10:42.168Z,99190.22
2023-08-03T13:13:09.925Z,99202.34
2023-08-03T13:15:37.622Z,99198.09
2023-08-03T13:18:06.874Z,99190.88
2023-08-03T13:20:39.737Z,99184.19
2023-08-03T13:23:08.140Z,99188.63
2023-08-03T13:25:35.897Z,99178.47
2023-08-03T13:28:06.504Z,99176.88
2023-08-03T13:30:34.944Z,99171.69
2023-08-03T13:33:02.754Z,99161.75
2023-08-03T13:35:31.882Z,99168.53
2023-08-03T13:37:59.767Z,99164.38
2023-08-03T13:40:27.535Z,99169.56
2023-08-03T13:42:55.217Z,99171.22
2023-08-03T13:45:23.067Z,99177.56
2023-08-03T13:47:50.823Z,99191.41
2023-08-03T13:50:18.907Z,99183.69
2023-08-03T13:52:48.266Z,99192.09
2023-08-03T13:55:15.942Z,99194.97
2023-08-03T13:57:44.189Z,99191.28
2023-08-03T14:00:12.787Z,99196.50
2023-08-03T14:05:11.801Z,99199.19
2023-08-03T14:22:47.450Z,99211.78
2023-08-03T14:27:52.706Z,99231.09
2023-08-03T14:30:21.560Z,99234.03
2023-08-03T14:32:49.554Z,99250.03
2023-08-03T14:37:49.381Z,99255.41
2023-08-03T14:40:18.666Z,99244.59
2023-08-03T14:42:55.212Z,99247.09
2023-08-03T14:45:28.636Z,99256.09
2023-08-03T14:48:05.970Z,99266.91
2023-08-03T14:50:37.166Z,99265.06
2023-08-03T14:53:05.160Z,99269.72
2023-08-03T14:55:34.699Z,99272.31
2023-08-03T14:58:03.071Z,99287.06
2023-08-03T15:00:30.824Z,99281.16
2023-08-03T15:02:58.701Z,99287.19
2023-08-03T15:05:26.669Z,99299.69
2023-08-03T15:07:54.478Z,99302.31
2023-08-03T15:10:22.238Z,99295.13
2023-08-03T15:12:56.512Z,99300.38
2023-08-03T15:15:31.010Z,99300.31
2023-08-03T15:17:59.802Z,99297.66
2023-08-03T15:20:35.982Z,99312.34
2023-08-03T15:23:06.412Z,99337.13
2023-08-03T15:25:36.487Z,99345.44
2023-08-03T15:28:10.988Z,99347.31
2023-08-03T15:35:44.266Z,99339.84
2023-08-03T15:38:18.035Z,99332.06
2023-08-03T15:40:58.553Z,99325.13
2023-08-03T15:43:37.415Z,99322.41
2023-08-03T15:46:15.943Z,99343.75
2023-08-03T15:51:18.778Z,99340.03
2023-08-03T15:53:56.868Z,99330.63
2023-08-03T15:56:30.656Z,99331.78
2023-08-03T15:58:59.741Z,99335.88
2023-08-03T16:01:27.691Z,99340.06
2023-08-03T16:03:55.395Z,99335.09
2023-08-03T16:06:24.247Z,99339.72
2023-08-03T16:08:51.932Z,99355.25
2023-08-03T16:11:30.053Z,99376.19
2023-08-03T16:14:09.001Z,99382.06
2023-08-03T16:16:36.764Z,99379.03
2023-08-03T16:19:04.449Z,99383.19
2023-08-03T16:21:32.432Z,99390.44
2023-08-03T16:24:00.243Z,99395.63
2023-08-03T16:26:27.908Z,99391.63
2023-08-03T16:28:55.610Z,99386.22
2023-08-03T16:31:26.567Z,99383.44
2023-08-03T16:34:11.493Z,99387.66
2023-08-03T16:36:40.201Z,99400.94
2023-08-03T16:39:08.188Z,99400.94
2023-08-03T16:41:37.518Z,99401.69
2023-08-03T16:44:05.580Z,99404.72
2023-08-03T16:46:34.683Z,99405.75
2023-08-03T16:49:02.465Z,99400.75
2023-08-03T16:51:30.793Z,99400.25
2023-08-03T16:53:58.577Z,99403.09
2023-08-03T16:56:26.338Z,99400.69
2023-08-03T16:58:54.339Z,99408.00
2023-08-03T17:01:22.078Z,99419.06
2023-08-03T17:03:51.750Z,99415.78
2023-08-03T17:06:19.705Z,99421.44
2023-08-03T17:08:47.425Z,99411.94
2023-08-03T17:11:15.576Z,99424.81
2023-08-03T17:13:43.665Z,99435.09
2023-08-03T17:16:11.611Z,99432.59
2023-08-03T17:18:40.464Z,99437.22
2023-08-03T17:21:09.642Z,99434.69
2023-08-03T17:23:37.393Z,99434.06
2023-08-03T17:26:05.162Z,99442.41
2023-08-03T17:28:32.967Z,99434.56
2023-08-03T17:31:04.874Z,99434.72
2023-08-03T17:33:33.088Z,99436.75
2023-08-03T17:36:00.898Z,99452.22
2023-08-03T17:38:29.988Z,99459.63
2023-08-03T17:40:57.784Z,99449.97
2023-08-03T17:43:27.111Z,99444.84
2023-08-03T17:45:55.001Z,99454.94
2023-08-03T17:48:24.981Z,99447.94
2023-08-03T17:50:52.957Z,99455.41
2023-08-03T17:53:22.535Z,99455.56
2023-08-03T17:55:51.918Z,99452.28
2023-08-03T17:58:20.124Z,99462.38
2023-08-03T18:00:47.977Z,99462.63
2023-08-03T18:03:16.085Z,99466.47
2023-08-03T18:05:44.305Z,99471.06
2023-08-03T18:08:12.780Z,99474.00
2023-08-03T18:10:41.445Z,99480.63
2023-08-03T18:13:10.645Z,99472.81
2023-08-03T18:15:38.864Z,99481.97
2023-08-03T18:18:06.785Z,99478.59
2023-08-03T18:20:38.041Z,99480.56
2023-08-03T18:23:06.109Z,99484.31
2023-08-03T18:25:33.899Z,99488.91
2023-08-03T18:28:01.901Z,99487.31
2023-08-03T18:30:31.200Z,99497.38
2023-08-03T18:32:59.137Z,99505.63
2023-08-03T18:35:28.261Z,99512.13
2023-08-03T18:37:57.282Z,99512.38
2023-08-03T18:40:25.244Z,99505.44
2023-08-03T18:42:53.046Z,99515.50
2023-08-03T18:45:20.898Z,99531.78
2023-08-03T18:47:50.105Z,99528.31
2023-08-03T18:50:18.441Z,99532.09
2023-08-03T18:52:46.708Z,99532.25
2023-08-03T18:55:14.653Z,99538.75
2023-08-03T18:57:42.455Z,99534.50
2023-08-03T19:00:11.717Z,99532.91
2023-08-03T19:02:39.535Z,99544.72
2023-08-03T19:05:09.343Z,99551.09
2023-08-03T19:07:37.135Z,99540.50
2023-08-03T19:10:05.678Z,99547.88
2023-08-03T19:12:33.451Z,99554.34
2023-08-03T19:15:01.330Z,99560.81
2023-08-03T19:17:29.197Z,99565.47
2023-08-03T19:19:57.046Z,99563.06
2023-08-03T19:22:26.153Z,99573.94
2023-08-03T19:24:53.964Z,99579.47
2023-08-03T19:27:21.828Z,99582.38
2023-08-03T19:29:49.711Z,99574.47
2023-08-03T19:32:17.526Z,99587.97
2023-08-03T19:34:45.314Z,99580.13
2023-08-03T19:37:13.144Z,99570.47
2023-08-03T19:39:42.330Z,99578.63
2023-08-03T19:42:10.539Z,99583.19
2023-08-03T19:44:38.380Z,99595.81
2023-08-03T19:47:07.034Z,99588.88
2023-08-03T19:57:09.073Z,99595.72
2023-08-03T19:59:36.939Z,99592.25
2023-08-03T20:09:38.490Z,99609.25
2023-08-03T20:12:08.737Z,99613.88
2023-08-03T20:14:37.505Z,99608.78
2023-08-03T20:19:39.716Z,99627.13
2023-08-03T20:22:08.457Z,99620.25
2023-08-03T20:24:38.455Z,99633.88
2023-08-03T20:27:08.608Z,99643.00
2023-08-03T20:32:08.616Z,99655.94
2023-08-03T20:37:18.445Z,99651.78
2023-08-03T20:40:00.671Z,99653.72
2023-08-03T20:45:02.025Z,99650.19
2023-08-03T20:50:57.720Z,99656.41
2023-08-03T20:52:48.558Z,99654.66
2023-08-03T20:55:16.572Z,99669.88
2023-08-03T20:57:45.821Z,99681.53
2023-08-03T21:00:14.617Z,99680.66
2023-08-03T21:02:42.469Z,99690.59
2023-08-03T21:05:10.903Z,99694.19
2023-08-03T21:07:39.015Z,99697.84
2023-08-03T21:12:39.065Z,99700.53
2023-08-03T21:15:09.732Z,99703.19
2023-08-03T21:17:37.588Z,99705.88
2023-08-03T21:20:07.053Z,99703.13
2023-08-03T21:22:34.985Z,99697.78
2023-08-03T21:25:02.891Z,99706.69
2023-08-03T21:27:31.763Z,99702.97
2023-08-03T21:30:04.727Z,99702.13
2023-08-03T21:32:35.680Z,99712.78
2023-08-03T21:35:03.907Z,99712.72
2023-08-03T21:40:00.893Z,99709.91
2023-08-03T21:42:28.908Z,99711.63
2023-08-03T21:44:57.169Z,99716.13
2023-08-03T21:47:25.176Z,99717.06
2023-08-03T21:49:55.999Z,99726.00
2023-08-03T21:52:24.218Z,99729.53
2023-08-03T21:54:52.178Z,99728.72
2023-08-03T21:57:20.283Z,99733.22
2023-08-03T21:59:48.052Z,99736.84
2023-08-03T22:02:15.866Z,99739.50
2023-08-03T22:04:43.896Z,99736.84
2023-08-03T22:07:13.091Z,99732.41
2023-08-03T22:09:40.909Z,99736.09
2023-08-03T22:12:09.700Z,99746.03
2023-08-03T22:14:37.547Z,99750.50
2023-08-03T22:17:06.217Z,99763.09
2023-08-03T22:19:34.180Z,99766.72
2023-08-03T22:22:02.204Z,99763.22
2023-08-03T22:24:31.346Z,99763.28
2023-08-03T22:26:59.186Z,99772.28
2023-08-03T22:29:27.076Z,99770.47
2023-08-03T22:31:54.870Z,99780.38
2023-08-03T22:34:22.691Z,99784.88
2023-08-03T22:36:52.349Z,99776.91
2023-08-03T22:39:20.101Z,99798.34
2023-08-03T22:41:49.544Z,99797.44
2023-08-03T22:44:17.464Z,99800.97
2023-08-03T22:46:45.455Z,99807.19
2023-08-03T22:49:13.330Z,99807.19
2023-08-03T22:51:41.208Z,99815.16
2023-08-03T22:54:08.990Z,99811.53
2023-08-03T22:56:36.804Z,99812.44
2023-08-03T22:59:05.976Z,99814.22
2023-08-03T23:01:33.833Z,99821.31
2023-08-03T23:04:01.683Z,99827.50
2023-08-03T23:06:29.961Z,99831.94
2023-08-03T23:08:58.063Z,99840.78
2023-08-03T23:11:26.231Z,99851.44
2023-08-03T23:13:54.072Z,99856.72
2023-08-03T23:16:23.290Z,99866.44
2023-08-03T23:18:53.142Z,99867.34
2023-08-03T23:21:20.994Z,99869.97
2023-08-03T23:23:49.168Z,99878.88
2023-08-03T23:26:17.367Z,99881.47
2023-08-03T23:28:46.199Z,99888.56
2023-08-03T23:31:14.529Z,99889.47
2023-08-03T23:33:43.681Z,99889.41
2023-08-03T23:36:11.534Z,99894.72
2023-08-03T23:38:39.260Z,99885.78
2023-08-03T23:41:07.013Z,99889.41
2023-08-03T23:43:34.772Z,99893.78
2023-08-03T23:46:02.542Z,99888.41
2023-08-03T23:48:30.808Z,99897.38
2023-08-03T23:50:59.992Z,99894.59
2023-08-03T23:53:27.747Z,99903.53
2023-08-03T23:55:55.488Z,99895.47
2023-08-03T23:58:23.209Z,99892.72
